sensor_id;sensor_type;location;lat;lon;timestamp;P1;durP1;ratioP1;P2;durP2;ratioP2
18997;SDS011;9632;51.018;4.284;2023-11-19T00:02:10;13.80;;;3.25;;
18997;SDS011;9632;51.018;4.284;2023-11-19T00:04:38;15.75;;;2.90;;
18997;SDS011;9632;51.018;4.284;2023-11-19T00:07:04;11.38;;;2.83;;
18997;SDS011;9632;51.018;4.284;2023-11-19T00:09:32;18.75;;;3.85;;
18997;SDS011;9632;51.018;4.284;2023-11-19T00:11:58;21.00;;;3.00;;
18997;SDS011;9632;51.018;4.284;2023-11-19T00:14:25;14.05;;;2.50;;
18997;SDS011;9632;51.018;4.284;2023-11-19T00:16:51;14.68;;;2.60;;
18997;SDS011;9632;51.018;4.284;2023-11-19T00:19:18;14.52;;;2.50;;
18997;SDS011;9632;51.018;4.284;2023-11-19T00:21:44;16.35;;;2.50;;
18997;SDS011;9632;51.018;4.284;2023-11-19T00:24:10;15.88;;;2.83;;
18997;SDS011;9632;51.018;4.284;2023-11-19T00:26:37;23.00;;;2.70;;
18997;SDS011;9632;51.018;4.284;2023-11-19T00:29:03;21.08;;;3.55;;
18997;SDS011;9632;51.018;4.284;2023-11-19T00:31:29;15.73;;;2.40;;
18997;SDS011;9632;51.018;4.284;2023-11-19T00:33:55;22.67;;;3.30;;
18997;SDS011;9632;51.018;4.284;2023-11-19T00:36:20;18.67;;;2.90;;
18997;SDS011;9632;51.018;4.284;2023-11-19T00:38:49;32.60;;;3.20;;
18997;SDS011;9632;51.018;4.284;2023-11-19T00:41:15;19.38;;;2.58;;
18997;SDS011;9632;51.018;4.284;2023-11-19T00:43:43;17.80;;;2.65;;
18997;SDS011;9632;51.018;4.284;2023-11-19T00:46:09;24.83;;;3.67;;
18997;SDS011;9632;51.018;4.284;2023-11-19T00:48:38;23.23;;;3.60;;
18997;SDS011;9632;51.018;4.284;2023-11-19T00:51:04;18.05;;;2.65;;
18997;SDS011;9632;51.018;4.284;2023-11-19T00:53:31;25.27;;;3.35;;
18997;SDS011;9632;51.018;4.284;2023-11-19T00:56:00;25.50;;;3.38;;
18997;SDS011;9632;51.018;4.284;2023-11-19T00:58:25;23.63;;;3.03;;
18997;SDS011;9632;51.018;4.284;2023-11-19T01:00:52;27.40;;;3.25;;
18997;SDS011;9632;51.018;4.284;2023-11-19T01:03:17;17.77;;;2.65;;
18997;SDS011;9632;51.018;4.284;2023-11-19T01:05:43;14.93;;;3.00;;
18997;SDS011;9632;51.018;4.284;2023-11-19T01:08:09;22.17;;;3.05;;
18997;SDS011;9632;51.018;4.284;2023-11-19T01:10:38;22.85;;;2.95;;
18997;SDS011;9632;51.018;4.284;2023-11-19T01:13:04;28.75;;;3.03;;
18997;SDS011;9632;51.018;4.284;2023-11-19T01:15:31;29.95;;;3.42;;
18997;SDS011;9632;51.018;4.284;2023-11-19T01:17:57;28.83;;;3.55;;
18997;SDS011;9632;51.018;4.284;2023-11-19T01:20:22;20.10;;;2.95;;
18997;SDS011;9632;51.018;4.284;2023-11-19T01:22:48;29.50;;;3.38;;
18997;SDS011;9632;51.018;4.284;2023-11-19T01:25:14;26.92;;;3.38;;
18997;SDS011;9632;51.018;4.284;2023-11-19T01:27:40;27.42;;;3.33;;
18997;SDS011;9632;51.018;4.284;2023-11-19T01:30:06;28.35;;;3.25;;
18997;SDS011;9632;51.018;4.284;2023-11-19T01:32:34;29.20;;;3.65;;
18997;SDS011;9632;51.018;4.284;2023-11-19T01:35:01;31.52;;;3.17;;
18997;SDS011;9632;51.018;4.284;2023-11-19T01:37:28;34.03;;;4.18;;
18997;SDS011;9632;51.018;4.284;2023-11-19T01:39:54;22.85;;;3.00;;
18997;SDS011;9632;51.018;4.284;2023-11-19T01:42:19;31.30;;;3.85;;
18997;SDS011;9632;51.018;4.284;2023-11-19T01:45:06;28.65;;;3.75;;
18997;SDS011;9632;51.018;4.284;2023-11-19T01:47:33;31.13;;;3.70;;
18997;SDS011;9632;51.018;4.284;2023-11-19T01:49:59;29.25;;;3.92;;
18997;SDS011;9632;51.018;4.284;2023-11-19T01:52:26;45.53;;;4.55;;
18997;SDS011;9632;51.018;4.284;2023-11-19T01:54:52;37.90;;;4.35;;
18997;SDS011;9632;51.018;4.284;2023-11-19T01:57:20;28.10;;;3.85;;
18997;SDS011;9632;51.018;4.284;2023-11-19T01:59:48;36.03;;;4.20;;
18997;SDS011;9632;51.018;4.284;2023-11-19T02:02:17;38.42;;;4.78;;
18997;SDS011;9632;51.018;4.284;2023-11-19T02:04:47;33.03;;;3.78;;
18997;SDS011;9632;51.018;4.284;2023-11-19T02:07:14;31.17;;;3.75;;
18997;SDS011;9632;51.018;4.284;2023-11-19T02:09:42;42.03;;;4.32;;
18997;SDS011;9632;51.018;4.284;2023-11-19T02:12:09;34.00;;;3.67;;
18997;SDS011;9632;51.018;4.284;2023-11-19T02:14:38;23.67;;;4.05;;
18997;SDS011;9632;51.018;4.284;2023-11-19T02:17:04;33.13;;;3.72;;
18997;SDS011;9632;51.018;4.284;2023-11-19T02:19:29;35.30;;;3.83;;
18997;SDS011;9632;51.018;4.284;2023-11-19T02:21:55;30.40;;;3.72;;
18997;SDS011;9632;51.018;4.284;2023-11-19T02:24:22;26.90;;;3.45;;
18997;SDS011;9632;51.018;4.284;2023-11-19T02:26:59;28.73;;;3.83;;
18997;SDS011;9632;51.018;4.284;2023-11-19T02:29:32;22.63;;;2.92;;
18997;SDS011;9632;51.018;4.284;2023-11-19T02:31:57;24.52;;;3.25;;
18997;SDS011;9632;51.018;4.284;2023-11-19T02:34:23;30.40;;;3.75;;
18997;SDS011;9632;51.018;4.284;2023-11-19T02:36:49;34.88;;;3.63;;
18997;SDS011;9632;51.018;4.284;2023-11-19T02:39:15;40.67;;;3.55;;
18997;SDS011;9632;51.018;4.284;2023-11-19T02:41:46;33.55;;;3.95;;
18997;SDS011;9632;51.018;4.284;2023-11-19T02:44:12;26.73;;;3.78;;
18997;SDS011;9632;51.018;4.284;2023-11-19T02:46:38;36.58;;;3.83;;
18997;SDS011;9632;51.018;4.284;2023-11-19T02:49:07;35.53;;;3.90;;
18997;SDS011;9632;51.018;4.284;2023-11-19T02:51:32;39.78;;;4.63;;
18997;SDS011;9632;51.018;4.284;2023-11-19T02:53:59;36.38;;;4.22;;
18997;SDS011;9632;51.018;4.284;2023-11-19T02:56:25;40.53;;;4.35;;
18997;SDS011;9632;51.018;4.284;2023-11-19T02:58:51;30.25;;;4.70;;
18997;SDS011;9632;51.018;4.284;2023-11-19T03:01:23;40.47;;;4.38;;
18997;SDS011;9632;51.018;4.284;2023-11-19T03:03:54;45.25;;;5.47;;
18997;SDS011;9632;51.018;4.284;2023-11-19T03:06:22;35.38;;;4.43;;
18997;SDS011;9632;51.018;4.284;2023-11-19T03:08:48;42.38;;;4.30;;
18997;SDS011;9632;51.018;4.284;2023-11-19T03:11:14;46.03;;;4.82;;
18997;SDS011;9632;51.018;4.284;2023-11-19T03:13:40;43.60;;;4.97;;
18997;SDS011;9632;51.018;4.284;2023-11-19T03:16:06;33.25;;;4.13;;
18997;SDS011;9632;51.018;4.284;2023-11-19T03:18:32;40.38;;;4.45;;
18997;SDS011;9632;51.018;4.284;2023-11-19T03:20:58;41.70;;;4.50;;
18997;SDS011;9632;51.018;4.284;2023-11-19T03:23:24;39.55;;;3.83;;
18997;SDS011;9632;51.018;4.284;2023-11-19T03:25:53;35.72;;;4.07;;
18997;SDS011;9632;51.018;4.284;2023-11-19T03:28:19;29.73;;;3.83;;
18997;SDS011;9632;51.018;4.284;2023-11-19T03:30:45;38.13;;;3.90;;
18997;SDS011;9632;51.018;4.284;2023-11-19T03:33:10;39.45;;;3.45;;
18997;SDS011;9632;51.018;4.284;2023-11-19T03:35:36;44.00;;;3.92;;
18997;SDS011;9632;51.018;4.284;2023-11-19T03:38:02;35.03;;;3.63;;
18997;SDS011;9632;51.018;4.284;2023-11-19T03:40:28;40.60;;;4.10;;
18997;SDS011;9632;51.018;4.284;2023-11-19T03:42:55;36.67;;;4.30;;
18997;SDS011;9632;51.018;4.284;2023-11-19T03:45:23;39.80;;;4.20;;
18997;SDS011;9632;51.018;4.284;2023-11-19T03:47:49;30.40;;;3.70;;
18997;SDS011;9632;51.018;4.284;2023-11-19T03:50:15;33.35;;;3.72;;
18997;SDS011;9632;51.018;4.284;2023-11-19T03:52:41;32.22;;;3.65;;
18997;SDS011;9632;51.018;4.284;2023-11-19T03:55:07;32.08;;;4.32;;
18997;SDS011;9632;51.018;4.284;2023-11-19T03:57:34;42.97;;;4.63;;
18997;SDS011;9632;51.018;4.284;2023-11-19T04:00:00;44.00;;;4.63;;
18997;SDS011;9632;51.018;4.284;2023-11-19T04:02:31;33.30;;;4.05;;
18997;SDS011;9632;51.018;4.284;2023-11-19T04:04:56;41.20;;;4.72;;
18997;SDS011;9632;51.018;4.284;2023-11-19T04:07:22;37.03;;;4.45;;
18997;SDS011;9632;51.018;4.284;2023-11-19T04:09:47;37.72;;;5.07;;
18997;SDS011;9632;51.018;4.284;2023-11-19T04:12:13;33.35;;;4.32;;
18997;SDS011;9632;51.018;4.284;2023-11-19T04:14:39;41.05;;;4.90;;
18997;SDS011;9632;51.018;4.284;2023-11-19T04:17:05;37.40;;;4.20;;
18997;SDS011;9632;51.018;4.284;2023-11-19T04:19:31;35.92;;;4.13;;
18997;SDS011;9632;51.018;4.284;2023-11-19T04:21:57;47.95;;;4.80;;
18997;SDS011;9632;51.018;4.284;2023-11-19T04:24:23;38.28;;;4.35;;
18997;SDS011;9632;51.018;4.284;2023-11-19T04:26:49;38.83;;;4.85;;
18997;SDS011;9632;51.018;4.284;2023-11-19T04:29:15;45.40;;;4.88;;
18997;SDS011;9632;51.018;4.284;2023-11-19T04:31:42;31.80;;;4.40;;
18997;SDS011;9632;51.018;4.284;2023-11-19T04:34:09;43.25;;;4.78;;
18997;SDS011;9632;51.018;4.284;2023-11-19T04:36:36;44.00;;;5.22;;
18997;SDS011;9632;51.018;4.284;2023-11-19T04:39:02;42.70;;;4.88;;
18997;SDS011;9632;51.018;4.284;2023-11-19T04:41:34;43.63;;;5.25;;
18997;SDS011;9632;51.018;4.284;2023-11-19T04:43:59;46.78;;;5.70;;
18997;SDS011;9632;51.018;4.284;2023-11-19T04:46:25;44.13;;;4.15;;
18997;SDS011;9632;51.018;4.284;2023-11-19T04:48:51;42.75;;;5.63;;
18997;SDS011;9632;51.018;4.284;2023-11-19T04:51:16;47.25;;;6.15;;
18997;SDS011;9632;51.018;4.284;2023-11-19T04:53:42;49.60;;;5.38;;
18997;SDS011;9632;51.018;4.284;2023-11-19T04:56:08;46.78;;;5.25;;
18997;SDS011;9632;51.018;4.284;2023-11-19T04:58:35;51.10;;;5.43;;
18997;SDS011;9632;51.018;4.284;2023-11-19T05:01:01;43.25;;;5.45;;
18997;SDS011;9632;51.018;4.284;2023-11-19T05:03:26;42.33;;;4.63;;
18997;SDS011;9632;51.018;4.284;2023-11-19T05:05:52;42.30;;;5.70;;
18997;SDS011;9632;51.018;4.284;2023-11-19T05:08:18;44.08;;;5.00;;
18997;SDS011;9632;51.018;4.284;2023-11-19T05:10:44;44.10;;;5.57;;
18997;SDS011;9632;51.018;4.284;2023-11-19T05:13:10;45.28;;;5.57;;
18997;SDS011;9632;51.018;4.284;2023-11-19T05:15:35;34.90;;;4.68;;
18997;SDS011;9632;51.018;4.284;2023-11-19T05:18:01;41.53;;;5.10;;
18997;SDS011;9632;51.018;4.284;2023-11-19T05:20:27;42.15;;;5.18;;
18997;SDS011;9632;51.018;4.284;2023-11-19T05:22:52;47.08;;;5.50;;
18997;SDS011;9632;51.018;4.284;2023-11-19T05:25:18;42.45;;;5.25;;
18997;SDS011;9632;51.018;4.284;2023-11-19T05:27:45;32.33;;;4.57;;
18997;SDS011;9632;51.018;4.284;2023-11-19T05:30:11;38.53;;;4.78;;
18997;SDS011;9632;51.018;4.284;2023-11-19T05:32:36;38.20;;;4.78;;
18997;SDS011;9632;51.018;4.284;2023-11-19T05:35:02;44.83;;;4.78;;
18997;SDS011;9632;51.018;4.284;2023-11-19T05:37:28;37.58;;;4.32;;
18997;SDS011;9632;51.018;4.284;2023-11-19T05:39:54;39.35;;;5.00;;
18997;SDS011;9632;51.018;4.284;2023-11-19T05:42:19;38.90;;;4.43;;
18997;SDS011;9632;51.018;4.284;2023-11-19T05:44:45;41.15;;;5.03;;
18997;SDS011;9632;51.018;4.284;2023-11-19T05:47:11;39.38;;;4.82;;
18997;SDS011;9632;51.018;4.284;2023-11-19T05:49:37;42.55;;;5.53;;
18997;SDS011;9632;51.018;4.284;2023-11-19T05:52:03;44.38;;;4.75;;
18997;SDS011;9632;51.018;4.284;2023-11-19T05:54:32;40.15;;;5.05;;
18997;SDS011;9632;51.018;4.284;2023-11-19T05:57:02;48.25;;;5.93;;
18997;SDS011;9632;51.018;4.284;2023-11-19T05:59:34;40.90;;;4.88;;
18997;SDS011;9632;51.018;4.284;2023-11-19T06:02:01;45.53;;;4.65;;
18997;SDS011;9632;51.018;4.284;2023-11-19T06:04:27;38.30;;;4.55;;
18997;SDS011;9632;51.018;4.284;2023-11-19T06:06:53;38.15;;;5.35;;
18997;SDS011;9632;51.018;4.284;2023-11-19T06:09:20;44.45;;;5.10;;
18997;SDS011;9632;51.018;4.284;2023-11-19T06:11:46;49.55;;;5.20;;
18997;SDS011;9632;51.018;4.284;2023-11-19T06:14:12;46.33;;;5.00;;
18997;SDS011;9632;51.018;4.284;2023-11-19T06:16:37;49.42;;;6.00;;
18997;SDS011;9632;51.018;4.284;2023-11-19T06:19:05;46.17;;;5.10;;
18997;SDS011;9632;51.018;4.284;2023-11-19T06:21:30;42.63;;;4.90;;
18997;SDS011;9632;51.018;4.284;2023-11-19T06:23:56;40.85;;;5.10;;
18997;SDS011;9632;51.018;4.284;2023-11-19T06:26:22;42.03;;;5.22;;
18997;SDS011;9632;51.018;4.284;2023-11-19T06:28:48;56.92;;;6.03;;
18997;SDS011;9632;51.018;4.284;2023-11-19T06:31:14;44.00;;;5.10;;
18997;SDS011;9632;51.018;4.284;2023-11-19T06:33:41;44.75;;;5.60;;
18997;SDS011;9632;51.018;4.284;2023-11-19T06:36:07;41.67;;;5.22;;
18997;SDS011;9632;51.018;4.284;2023-11-19T06:38:34;42.35;;;5.43;;
18997;SDS011;9632;51.018;4.284;2023-11-19T06:40:59;40.72;;;4.63;;
18997;SDS011;9632;51.018;4.284;2023-11-19T06:43:26;47.35;;;4.93;;
18997;SDS011;9632;51.018;4.284;2023-11-19T06:45:53;43.55;;;5.10;;
18997;SDS011;9632;51.018;4.284;2023-11-19T06:48:19;47.85;;;5.40;;
18997;SDS011;9632;51.018;4.284;2023-11-19T06:50:44;45.05;;;4.80;;
18997;SDS011;9632;51.018;4.284;2023-11-19T06:53:10;47.60;;;5.10;;
18997;SDS011;9632;51.018;4.284;2023-11-19T06:55:36;55.50;;;6.00;;
18997;SDS011;9632;51.018;4.284;2023-11-19T06:58:02;47.05;;;5.40;;
18997;SDS011;9632;51.018;4.284;2023-11-19T07:00:28;43.08;;;5.32;;
18997;SDS011;9632;51.018;4.284;2023-11-19T07:02:54;51.90;;;5.75;;
18997;SDS011;9632;51.018;4.284;2023-11-19T07:05:20;42.38;;;5.50;;
18997;SDS011;9632;51.018;4.284;2023-11-19T07:07:46;49.00;;;5.43;;
18997;SDS011;9632;51.018;4.284;2023-11-19T07:10:12;36.35;;;4.78;;
18997;SDS011;9632;51.018;4.284;2023-11-19T07:12:38;45.90;;;5.20;;
18997;SDS011;9632;51.018;4.284;2023-11-19T07:15:03;47.65;;;5.95;;
18997;SDS011;9632;51.018;4.284;2023-11-19T07:17:30;46.38;;;5.30;;
18997;SDS011;9632;51.018;4.284;2023-11-19T07:19:56;41.80;;;5.20;;
18997;SDS011;9632;51.018;4.284;2023-11-19T07:22:25;42.10;;;4.75;;
18997;SDS011;9632;51.018;4.284;2023-11-19T07:24:51;45.53;;;5.15;;
18997;SDS011;9632;51.018;4.284;2023-11-19T07:27:18;42.20;;;5.18;;
18997;SDS011;9632;51.018;4.284;2023-11-19T07:29:44;41.30;;;4.72;;
18997;SDS011;9632;51.018;4.284;2023-11-19T07:32:10;50.30;;;4.97;;
18997;SDS011;9632;51.018;4.284;2023-11-19T07:34:36;52.53;;;4.80;;
18997;SDS011;9632;51.018;4.284;2023-11-19T07:37:01;49.35;;;5.32;;
18997;SDS011;9632;51.018;4.284;2023-11-19T07:39:28;51.72;;;5.57;;
18997;SDS011;9632;51.018;4.284;2023-11-19T07:41:54;51.83;;;5.57;;
18997;SDS011;9632;51.018;4.284;2023-11-19T07:44:20;50.80;;;6.47;;
18997;SDS011;9632;51.018;4.284;2023-11-19T07:46:46;52.47;;;5.40;;
18997;SDS011;9632;51.018;4.284;2023-11-19T07:49:13;38.88;;;5.18;;
18997;SDS011;9632;51.018;4.284;2023-11-19T07:51:38;48.25;;;5.65;;
18997;SDS011;9632;51.018;4.284;2023-11-19T07:54:04;39.53;;;5.50;;
18997;SDS011;9632;51.018;4.284;2023-11-19T07:56:31;57.58;;;5.78;;
18997;SDS011;9632;51.018;4.284;2023-11-19T07:58:59;50.97;;;5.28;;
18997;SDS011;9632;51.018;4.284;2023-11-19T08:01:25;48.88;;;5.53;;
18997;SDS011;9632;51.018;4.284;2023-11-19T08:03:50;48.83;;;5.90;;
18997;SDS011;9632;51.018;4.284;2023-11-19T08:06:16;53.75;;;6.03;;
18997;SDS011;9632;51.018;4.284;2023-11-19T08:08:42;46.38;;;5.95;;
18997;SDS011;9632;51.018;4.284;2023-11-19T08:11:08;53.80;;;5.85;;
18997;SDS011;9632;51.018;4.284;2023-11-19T08:13:33;49.50;;;6.68;;
18997;SDS011;9632;51.018;4.284;2023-11-19T08:15:59;51.17;;;6.35;;
18997;SDS011;9632;51.018;4.284;2023-11-19T08:18:25;47.58;;;6.90;;
18997;SDS011;9632;51.018;4.284;2023-11-19T08:20:50;52.55;;;6.95;;
18997;SDS011;9632;51.018;4.284;2023-11-19T08:23:18;41.22;;;5.95;;
18997;SDS011;9632;51.018;4.284;2023-11-19T08:25:44;37.75;;;5.57;;
18997;SDS011;9632;51.018;4.284;2023-11-19T08:28:10;47.88;;;5.85;;
18997;SDS011;9632;51.018;4.284;2023-11-19T08:30:36;46.08;;;5.68;;
18997;SDS011;9632;51.018;4.284;2023-11-19T08:33:01;41.30;;;5.47;;
18997;SDS011;9632;51.018;4.284;2023-11-19T08:35:31;38.88;;;4.25;;
18997;SDS011;9632;51.018;4.284;2023-11-19T08:37:57;37.38;;;5.78;;
18997;SDS011;9632;51.018;4.284;2023-11-19T08:40:24;42.83;;;6.15;;
18997;SDS011;9632;51.018;4.284;2023-11-19T08:42:50;40.95;;;5.70;;
18997;SDS011;9632;51.018;4.284;2023-11-19T08:45:16;41.22;;;5.47;;
18997;SDS011;9632;51.018;4.284;2023-11-19T08:47:42;51.53;;;5.57;;
18997;SDS011;9632;51.018;4.284;2023-11-19T08:50:08;34.10;;;4.70;;
18997;SDS011;9632;51.018;4.284;2023-11-19T08:52:34;41.72;;;5.20;;
18997;SDS011;9632;51.018;4.284;2023-11-19T08:55:00;38.22;;;4.90;;
18997;SDS011;9632;51.018;4.284;2023-11-19T08:57:25;44.92;;;5.07;;
18997;SDS011;9632;51.018;4.284;2023-11-19T08:59:51;33.15;;;4.60;;
18997;SDS011;9632;51.018;4.284;2023-11-19T09:02:16;42.92;;;4.72;;
18997;SDS011;9632;51.018;4.284;2023-11-19T09:04:43;39.53;;;4.85;;
18997;SDS011;9632;51.018;4.284;2023-11-19T09:07:09;42.60;;;4.85;;
18997;SDS011;9632;51.018;4.284;2023-11-19T09:09:35;37.38;;;5.03;;
18997;SDS011;9632;51.018;4.284;2023-11-19T09:12:01;34.72;;;5.28;;
18997;SDS011;9632;51.018;4.284;2023-11-19T09:14:28;32.55;;;4.22;;
18997;SDS011;9632;51.018;4.284;2023-11-19T09:17:05;34.60;;;5.07;;
18997;SDS011;9632;51.018;4.284;2023-11-19T09:19:32;31.83;;;5.13;;
18997;SDS011;9632;51.018;4.284;2023-11-19T09:21:57;35.28;;;4.78;;
18997;SDS011;9632;51.018;4.284;2023-11-19T09:24:23;36.42;;;4.47;;
18997;SDS011;9632;51.018;4.284;2023-11-19T09:26:49;40.60;;;6.18;;
18997;SDS011;9632;51.018;4.284;2023-11-19T09:29:15;40.00;;;5.00;;
18997;SDS011;9632;51.018;4.284;2023-11-19T09:31:41;35.92;;;5.50;;
18997;SDS011;9632;51.018;4.284;2023-11-19T09:34:07;39.65;;;4.88;;
18997;SDS011;9632;51.018;4.284;2023-11-19T09:36:33;43.75;;;5.55;;
18997;SDS011;9632;51.018;4.284;2023-11-19T09:38:58;33.85;;;4.78;;
18997;SDS011;9632;51.018;4.284;2023-11-19T09:41:27;37.88;;;4.50;;
18997;SDS011;9632;51.018;4.284;2023-11-19T09:43:53;37.65;;;5.00;;
18997;SDS011;9632;51.018;4.284;2023-11-19T09:46:19;46.55;;;5.40;;
18997;SDS011;9632;51.018;4.284;2023-11-19T09:48:46;31.05;;;4.28;;
18997;SDS011;9632;51.018;4.284;2023-11-19T09:51:13;41.25;;;5.15;;
18997;SDS011;9632;51.018;4.284;2023-11-19T09:53:39;32.15;;;4.53;;
18997;SDS011;9632;51.018;4.284;2023-11-19T09:56:05;27.73;;;3.90;;
18997;SDS011;9632;51.018;4.284;2023-11-19T09:58:32;31.20;;;4.65;;
18997;SDS011;9632;51.018;4.284;2023-11-19T10:00:59;30.05;;;4.20;;
18997;SDS011;9632;51.018;4.284;2023-11-19T10:03:26;37.80;;;4.20;;
18997;SDS011;9632;51.018;4.284;2023-11-19T10:05:54;35.90;;;4.20;;
18997;SDS011;9632;51.018;4.284;2023-11-19T10:08:21;39.65;;;5.53;;
18997;SDS011;9632;51.018;4.284;2023-11-19T10:10:47;31.80;;;3.83;;
18997;SDS011;9632;51.018;4.284;2023-11-19T10:13:13;27.73;;;4.53;;
18997;SDS011;9632;51.018;4.284;2023-11-19T10:15:39;42.08;;;4.75;;
18997;SDS011;9632;51.018;4.284;2023-11-19T10:18:06;37.30;;;4.80;;
18997;SDS011;9632;51.018;4.284;2023-11-19T10:20:35;33.83;;;4.50;;
18997;SDS011;9632;51.018;4.284;2023-11-19T10:23:06;29.65;;;4.55;;
18997;SDS011;9632;51.018;4.284;2023-11-19T10:25:32;37.25;;;4.25;;
18997;SDS011;9632;51.018;4.284;2023-11-19T10:27:58;33.20;;;4.53;;
18997;SDS011;9632;51.018;4.284;2023-11-19T10:30:28;33.60;;;4.40;;
18997;SDS011;9632;51.018;4.284;2023-11-19T10:33:28;33.97;;;4.45;;
18997;SDS011;9632;51.018;4.284;2023-11-19T10:35:53;31.00;;;4.22;;
18997;SDS011;9632;51.018;4.284;2023-11-19T10:38:21;32.83;;;4.10;;
18997;SDS011;9632;51.018;4.284;2023-11-19T10:40:48;36.67;;;4.32;;
18997;SDS011;9632;51.018;4.284;2023-11-19T10:43:15;37.85;;;3.97;;
18997;SDS011;9632;51.018;4.284;2023-11-19T10:45:44;30.17;;;4.00;;
18997;SDS011;9632;51.018;4.284;2023-11-19T10:48:10;40.00;;;5.20;;
18997;SDS011;9632;51.018;4.284;2023-11-19T10:50:38;28.27;;;4.57;;
18997;SDS011;9632;51.018;4.284;2023-11-19T10:53:05;36.88;;;4.70;;
18997;SDS011;9632;51.018;4.284;2023-11-19T10:55:32;35.47;;;4.50;;
18997;SDS011;9632;51.018;4.284;2023-11-19T10:58:08;31.55;;;3.92;;
18997;SDS011;9632;51.018;4.284;2023-11-19T11:00:39;38.38;;;4.38;;
18997;SDS011;9632;51.018;4.284;2023-11-19T11:05:42;31.63;;;3.78;;
18997;SDS011;9632;51.018;4.284;2023-11-19T11:08:12;40.70;;;4.28;;
18997;SDS011;9632;51.018;4.284;2023-11-19T11:10:45;30.40;;;4.32;;
18997;SDS011;9632;51.018;4.284;2023-11-19T11:13:18;35.50;;;4.00;;
18997;SDS011;9632;51.018;4.284;2023-11-19T11:15:44;30.50;;;3.45;;
18997;SDS011;9632;51.018;4.284;2023-11-19T11:18:12;26.55;;;3.22;;
18997;SDS011;9632;51.018;4.284;2023-11-19T11:20:38;37.00;;;4.38;;
18997;SDS011;9632;51.018;4.284;2023-11-19T11:37:26;28.98;;;3.88;;
18997;SDS011;9632;51.018;4.284;2023-11-19T11:39:56;31.80;;;4.38;;
18997;SDS011;9632;51.018;4.284;2023-11-19T11:50:18;33.95;;;4.05;;
18997;SDS011;9632;51.018;4.284;2023-11-19T11:55:27;34.35;;;4.10;;
18997;SDS011;9632;51.018;4.284;2023-11-19T11:57:58;28.90;;;4.10;;
18997;SDS011;9632;51.018;4.284;2023-11-19T12:00:27;33.60;;;4.05;;
18997;SDS011;9632;51.018;4.284;2023-11-19T12:02:56;28.75;;;4.15;;
18997;SDS011;9632;51.018;4.284;2023-11-19T12:05:24;38.20;;;4.55;;
18997;SDS011;9632;51.018;4.284;2023-11-19T12:07:56;35.03;;;4.60;;
18997;SDS011;9632;51.018;4.284;2023-11-19T12:10:28;33.47;;;4.47;;
18997;SDS011;9632;51.018;4.284;2023-11-19T12:12:59;30.55;;;4.07;;
18997;SDS011;9632;51.018;4.284;2023-11-19T12:15:26;29.63;;;4.30;;
18997;SDS011;9632;51.018;4.284;2023-11-19T12:17:53;28.90;;;3.80;;
18997;SDS011;9632;51.018;4.284;2023-11-19T12:20:23;38.60;;;5.18;;
18997;SDS011;9632;51.018;4.284;2023-11-19T12:22:50;37.13;;;5.10;;
18997;SDS011;9632;51.018;4.284;2023-11-19T12:25:17;32.97;;;4.55;;
18997;SDS011;9632;51.018;4.284;2023-11-19T12:27:47;28.33;;;4.07;;
18997;SDS011;9632;51.018;4.284;2023-11-19T12:30:26;40.88;;;4.53;;
18997;SDS011;9632;51.018;4.284;2023-11-19T12:32:52;33.78;;;4.50;;
18997;SDS011;9632;51.018;4.284;2023-11-19T12:35:19;28.45;;;3.83;;
18997;SDS011;9632;51.018;4.284;2023-11-19T12:37:48;29.27;;;3.75;;
18997;SDS011;9632;51.018;4.284;2023-11-19T12:42:49;30.45;;;3.65;;
18997;SDS011;9632;51.018;4.284;2023-11-19T12:45:16;29.27;;;4.15;;
18997;SDS011;9632;51.018;4.284;2023-11-19T12:47:43;29.42;;;3.80;;
18997;SDS011;9632;51.018;4.284;2023-11-19T12:50:09;30.88;;;5.15;;
18997;SDS011;9632;51.018;4.284;2023-11-19T12:52:38;30.33;;;3.42;;
18997;SDS011;9632;51.018;4.284;2023-11-19T12:55:05;28.02;;;3.38;;
18997;SDS011;9632;51.018;4.284;2023-11-19T12:57:50;30.38;;;4.57;;
18997;SDS011;9632;51.018;4.284;2023-11-19T13:00:19;34.75;;;3.80;;
18997;SDS011;9632;51.018;4.284;2023-11-19T13:02:50;37.08;;;4.28;;
18997;SDS011;9632;51.018;4.284;2023-11-19T13:05:21;35.75;;;3.85;;
18997;SDS011;9632;51.018;4.284;2023-11-19T13:08:07;31.23;;;4.53;;
18997;SDS011;9632;51.018;4.284;2023-11-19T13:13:16;38.45;;;4.55;;
18997;SDS011;9632;51.018;4.284;2023-11-19T13:15:42;33.08;;;4.68;;
18997;SDS011;9632;51.018;4.284;2023-11-19T13:18:09;34.45;;;4.00;;
18997;SDS011;9632;51.018;4.284;2023-11-19T13:20:35;40.30;;;4.97;;
18997;SDS011;9632;51.018;4.284;2023-11-19T13:23:02;26.52;;;3.85;;
18997;SDS011;9632;51.018;4.284;2023-11-19T13:25:29;37.38;;;3.83;;
18997;SDS011;9632;51.018;4.284;2023-11-19T13:27:55;31.65;;;3.85;;
18997;SDS011;9632;51.018;4.284;2023-11-19T13:30:22;41.22;;;5.00;;
18997;SDS011;9632;51.018;4.284;2023-11-19T13:32:48;37.08;;;5.40;;
18997;SDS011;9632;51.018;4.284;2023-11-19T13:35:15;40.70;;;5.05;;
18997;SDS011;9632;51.018;4.284;2023-11-19T13:37:44;37.28;;;4.35;;
18997;SDS011;9632;51.018;4.284;2023-11-19T13:40:11;32.17;;;4.22;;
18997;SDS011;9632;51.018;4.284;2023-11-19T13:42:43;33.13;;;4.40;;
18997;SDS011;9632;51.018;4.284;2023-11-19T13:45:12;40.13;;;4.28;;
18997;SDS011;9632;51.018;4.284;2023-11-19T13:47:39;43.60;;;4.95;;
18997;SDS011;9632;51.018;4.284;2023-11-19T13:50:09;30.85;;;4.30;;
18997;SDS011;9632;51.018;4.284;2023-11-19T13:52:40;32.53;;;3.97;;
18997;SDS011;9632;51.018;4.284;2023-11-19T13:55:07;30.75;;;3.83;;
18997;SDS011;9632;51.018;4.284;2023-11-19T13:57:35;34.63;;;4.45;;
18997;SDS011;9632;51.018;4.284;2023-11-19T14:00:02;36.67;;;4.50;;
18997;SDS011;9632;51.018;4.284;2023-11-19T14:02:34;33.95;;;4.47;;
18997;SDS011;9632;51.018;4.284;2023-11-19T14:05:00;32.25;;;3.65;;
18997;SDS011;9632;51.018;4.284;2023-11-19T14:07:26;36.20;;;4.35;;
18997;SDS011;9632;51.018;4.284;2023-11-19T14:09:52;37.78;;;4.45;;
18997;SDS011;9632;51.018;4.284;2023-11-19T14:12:19;37.15;;;4.10;;
18997;SDS011;9632;51.018;4.284;2023-11-19T14:14:45;39.00;;;4.35;;
18997;SDS011;9632;51.018;4.284;2023-11-19T14:17:11;37.83;;;4.43;;
18997;SDS011;9632;51.018;4.284;2023-11-19T14:19:36;38.95;;;4.85;;
18997;SDS011;9632;51.018;4.284;2023-11-19T14:22:04;43.33;;;5.15;;
18997;SDS011;9632;51.018;4.284;2023-11-19T14:24:30;35.08;;;4.20;;
18997;SDS011;9632;51.018;4.284;2023-11-19T14:26:56;37.85;;;4.93;;
18997;SDS011;9632;51.018;4.284;2023-11-19T14:29:24;35.83;;;4.05;;
18997;SDS011;9632;51.018;4.284;2023-11-19T14:31:56;42.10;;;4.75;;
18997;SDS011;9632;51.018;4.284;2023-11-19T14:34:23;40.15;;;5.63;;
18997;SDS011;9632;51.018;4.284;2023-11-19T14:36:49;39.83;;;4.47;;
18997;SDS011;9632;51.018;4.284;2023-11-19T14:39:15;41.45;;;5.18;;
18997;SDS011;9632;51.018;4.284;2023-11-19T14:41:42;37.17;;;4.35;;
18997;SDS011;9632;51.018;4.284;2023-11-19T14:44:09;46.83;;;4.88;;
18997;SDS011;9632;51.018;4.284;2023-11-19T14:46:35;33.10;;;4.30;;
18997;SDS011;9632;51.018;4.284;2023-11-19T14:49:01;40.47;;;4.80;;
18997;SDS011;9632;51.018;4.284;2023-11-19T14:51:27;43.65;;;4.57;;
18997;SDS011;9632;51.018;4.284;2023-11-19T14:53:52;44.15;;;4.25;;
18997;SDS011;9632;51.018;4.284;2023-11-19T14:56:18;37.58;;;4.45;;
18997;SDS011;9632;51.018;4.284;2023-11-19T14:58:43;29.08;;;3.80;;
18997;SDS011;9632;51.018;4.284;2023-11-19T15:01:13;33.03;;;4.18;;
18997;SDS011;9632;51.018;4.284;2023-11-19T15:03:39;39.55;;;4.05;;
18997;SDS011;9632;51.018;4.284;2023-11-19T15:06:05;39.67;;;5.20;;
18997;SDS011;9632;51.018;4.284;2023-11-19T15:08:32;48.92;;;5.70;;
18997;SDS011;9632;51.018;4.284;2023-11-19T15:10:58;38.13;;;4.25;;
18997;SDS011;9632;51.018;4.284;2023-11-19T15:13:24;44.17;;;4.90;;
18997;SDS011;9632;51.018;4.284;2023-11-19T15:15:50;43.60;;;4.88;;
18997;SDS011;9632;51.018;4.284;2023-11-19T15:18:17;36.45;;;4.57;;
18997;SDS011;9632;51.018;4.284;2023-11-19T15:20:44;36.08;;;4.50;;